Time;durP1;ratioP1;P1;durP2;ratioP2;P2;SDS_P1;SDS_P2;PMS_P1;PMS_P2;Temp;Humidity;BMP_temperature;BMP_pressure;BME280_temperature;BME280_humidity;BME280_pressure;Samples;Min_cycle;Max_cycle;Signal;HPM_P1;HPM_P2
2022/03/17 00:00:20;;;;;;;69.63;44.42;;;;;;;4.13;59.97;101461.78;5029097;28;105859;-76
2022/03/17 00:02:45;;;;;;;83.63;48.28;;;;;;;4.09;60.42;101455.88;5029122;27;106538;-73
2022/03/17 00:05:12;;;;;;;76.00;44.08;;;;;;;4.05;60.13;101465.75;5028546;27;105818;-78
2022/03/17 00:07:39;;;;;;;81.40;45.97;;;;;;;4.03;60.49;101456.25;5030124;27;105855;-80
2022/03/17 00:10:06;;;;;;;72.68;43.92;;;;;;;4.01;60.41;101456.34;5029561;27;105992;-79
2022/03/17 00:12:32;;;;;;;87.90;46.80;;;;;;;4.00;60.68;101449.38;5028795;27;107374;-79
2022/03/17 00:14:57;;;;;;;85.72;46.92;;;;;;;3.98;60.33;101448.63;5028781;27;106455;-72
2022/03/17 00:17:22;;;;;;;81.47;46.40;;;;;;;3.96;60.55;101450.50;5028022;28;106483;-76
2022/03/17 00:19:47;;;;;;;81.10;46.90;;;;;;;3.93;60.37;101449.88;5029226;27;106224;-77
2022/03/17 00:22:16;;;;;;;80.30;46.92;;;;;;;3.89;60.79;101451.84;5028702;27;106297;-79
2022/03/17 00:24:42;;;;;;;85.60;48.75;;;;;;;3.85;60.98;101445.91;5029061;27;106391;-71
2022/03/17 00:27:10;;;;;;;78.78;46.97;;;;;;;3.80;60.97;101450.63;5028999;27;105989;-74
2022/03/17 00:29:36;;;;;;;82.43;46.80;;;;;;;3.78;61.22;101463.06;5029172;28;106230;-73
2022/03/17 00:32:03;;;;;;;87.53;48.45;;;;;;;3.72;60.97;101445.84;5028235;27;105953;-79
2022/03/17 00:34:29;;;;;;;77.93;44.60;;;;;;;3.68;61.17;101452.22;5028704;27;105852;-79
2022/03/17 00:36:55;;;;;;;83.32;46.00;;;;;;;3.62;60.91;101449.97;5029339;28;105920;-75
2022/03/17 00:39:21;;;;;;;86.00;48.00;;;;;;;3.56;61.28;101445.09;5028817;27;106121;-75
2022/03/17 00:41:46;;;;;;;79.78;44.08;;;;;;;3.51;61.53;101444.50;5028586;28;106592;-73
2022/03/17 00:44:12;;;;;;;74.88;44.10;;;;;;;3.48;61.45;101450.81;5028591;28;105875;-73
2022/03/17 00:46:39;;;;;;;81.38;45.80;;;;;;;3.44;61.22;101459.00;5029065;27;105762;-73
2022/03/17 00:49:05;;;;;;;76.18;45.88;;;;;;;3.37;61.55;101459.34;5027956;28;106363;-74
2022/03/17 00:51:30;;;;;;;79.43;44.63;;;;;;;3.32;61.61;101468.47;5027101;27;106786;-75
2022/03/17 00:53:56;;;;;;;75.57;44.15;;;;;;;3.26;61.93;101467.06;5024722;28;106271;-78
2022/03/17 00:56:22;;;;;;;75.88;44.80;;;;;;;3.21;61.85;101467.34;5028638;27;106093;-75
2022/03/17 00:58:48;;;;;;;74.75;43.03;;;;;;;3.16;61.58;101481.72;5027422;28;106411;-77
2022/03/17 01:01:15;;;;;;;77.95;44.10;;;;;;;3.12;62.13;101472.31;5027256;28;107294;-78
2022/03/17 01:03:41;;;;;;;79.20;45.40;;;;;;;3.09;62.18;101469.84;5027437;27;107328;-77
2022/03/17 01:06:06;;;;;;;88.05;47.10;;;;;;;3.07;62.23;101466.47;5028518;28;106143;-76
2022/03/17 01:08:32;;;;;;;80.38;42.63;;;;;;;3.05;62.28;101463.94;5028313;27;106227;-73
2022/03/17 01:10:57;;;;;;;85.45;48.10;;;;;;;3.03;62.72;101466.66;5026818;28;116887;-78
2022/03/17 01:13:23;;;;;;;81.70;45.00;;;;;;;2.99;62.84;101475.66;5027355;27;105836;-76
2022/03/17 01:15:48;;;;;;;80.88;47.85;;;;;;;2.96;62.43;101470.56;5028100;27;106016;-77
2022/03/17 01:18:13;;;;;;;86.90;46.63;;;;;;;2.91;62.40;101475.25;5027065;27;106055;-75
2022/03/17 01:20:39;;;;;;;75.50;46.33;;;;;;;2.87;62.88;101473.72;5026965;27;106489;-76
2022/03/17 01:23:06;;;;;;;80.50;46.30;;;;;;;2.82;63.06;101473.16;5027543;27;106440;-76
2022/03/17 01:25:32;;;;;;;80.97;46.60;;;;;;;2.76;62.96;101479.63;5027700;27;106208;-78
2022/03/17 01:27:58;;;;;;;75.93;45.45;;;;;;;2.69;63.00;101473.88;5027481;28;106332;-80
2022/03/17 01:30:23;;;;;;;79.50;45.25;;;;;;;2.68;63.14;101479.22;5026965;28;105798;-76
2022/03/17 01:32:49;;;;;;;76.55;46.30;;;;;;;2.67;63.25;101477.53;5027160;27;105928;-75
2022/03/17 01:35:14;;;;;;;77.25;44.10;;;;;;;2.66;63.32;101467.91;5027842;27;106155;-76
2022/03/17 01:37:40;;;;;;;79.60;44.53;;;;;;;2.64;63.38;101465.38;5027202;27;106189;-76
2022/03/17 01:40:07;;;;;;;77.28;45.63;;;;;;;2.62;63.33;101453.25;5027143;27;105911;-75
2022/03/17 01:42:32;;;;;;;78.10;43.47;;;;;;;2.60;63.42;101440.19;5027014;28;106337;-76
2022/03/17 01:44:58;;;;;;;85.65;45.38;;;;;;;2.59;63.38;101433.22;5027953;27;106120;-73
2022/03/17 01:47:29;;;;;;;83.03;43.08;;;;;;;2.58;63.64;101428.88;5026910;28;106215;-75
2022/03/17 01:50:07;;;;;;;81.47;43.05;;;;;;;2.56;63.55;101408.84;5026633;27;106869;-75
2022/03/17 01:52:33;;;;;;;77.50;44.50;;;;;;;2.52;63.43;101408.22;5024966;28;106532;-73
2022/03/17 01:54:59;;;;;;;88.85;49.25;;;;;;;2.50;63.65;101394.28;5027360;27;106616;-79
2022/03/17 01:57:25;;;;;;;81.75;45.42;;;;;;;2.47;63.53;101392.66;5025940;28;106322;-81
2022/03/17 01:59:51;;;;;;;81.30;46.30;;;;;;;2.45;63.93;101396.34;5027459;28;105992;-78
2022/03/17 02:02:17;;;;;;;79.18;46.13;;;;;;;2.40;64.20;101388.69;5027261;27;107030;-72
2022/03/17 02:04:43;;;;;;;78.55;46.72;;;;;;;2.33;63.92;101393.47;5030180;27;105948;-79
2022/03/17 02:07:11;;;;;;;78.20;43.40;;;;;;;2.25;63.77;101395.69;5030698;27;106477;-72
2022/03/17 02:09:37;;;;;;;79.32;43.58;;;;;;;2.19;63.95;101420.53;5030678;27;105858;-76
2022/03/17 02:14:56;;;;;;;80.00;45.97;;;;;;;1.99;64.33;101434.78;5031059;28;106155;-74
2022/03/17 02:17:22;;;;;;;78.47;47.03;;;;;;;1.89;64.25;101443.25;5030017;28;106225;-75
2022/03/17 02:19:49;;;;;;;84.88;47.90;;;;;;;1.82;64.39;101434.88;5030222;28;106015;-76
2022/03/17 02:22:18;;;;;;;81.38;44.17;;;;;;;1.77;64.67;101437.72;5029883;27;106330;-74
2022/03/17 02:27:31;;;;;;;81.38;45.42;;;;;;;1.71;64.99;101430.19;5027560;28;106069;-75
2022/03/17 02:29:56;;;;;;;94.40;49.25;;;;;;;1.71;65.11;101437.22;5030103;27;106762;-74
2022/03/17 02:32:21;;;;;;;94.35;49.10;;;;;;;1.69;65.48;101442.56;5030310;27;106166;-74
2022/03/17 02:34:47;;;;;;;89.95;49.88;;;;;;;1.66;65.14;101440.94;5031018;27;105880;-74
2022/03/17 02:37:13;;;;;;;83.93;46.95;;;;;;;1.66;65.52;101440.94;5030533;27;105857;-80
2022/03/17 02:39:39;;;;;;;89.38;49.05;;;;;;;1.63;65.32;101448.16;5029069;28;107370;-77
2022/03/17 02:42:05;;;;;;;87.22;47.08;;;;;;;1.62;65.56;101454.31;5029898;28;106231;-79
2022/03/17 02:44:32;;;;;;;91.32;46.17;;;;;;;1.60;65.45;101457.03;5031401;27;106266;-77
2022/03/17 02:46:57;;;;;;;88.50;47.75;;;;;;;1.58;65.56;101469.38;5030438;28;105887;-79
2022/03/17 02:49:23;;;;;;;88.97;46.58;;;;;;;1.55;66.13;101480.06;5029906;27;110769;-81
2022/03/17 02:51:49;;;;;;;85.55;46.70;;;;;;;1.52;65.98;101477.59;5029948;27;106922;-77
2022/03/17 02:54:14;;;;;;;85.40;48.08;;;;;;;1.51;65.74;101468.00;5030802;27;105929;-81
2022/03/17 02:56:40;;;;;;;80.20;47.22;;;;;;;1.49;65.82;101460.22;5030387;27;106385;-81
2022/03/17 02:59:05;;;;;;;84.00;47.42;;;;;;;1.47;65.89;101469.09;5029912;28;105877;-77
2022/03/17 03:01:31;;;;;;;80.35;48.40;;;;;;;1.45;66.41;101465.69;5030645;27;105844;-75
2022/03/17 03:03:56;;;;;;;85.93;46.25;;;;;;;1.44;66.04;101471.91;5032585;27;105811;-73
2022/03/17 03:06:21;;;;;;;83.70;45.38;;;;;;;1.42;66.29;101473.75;5030364;28;111549;-79
2022/03/17 03:08:47;;;;;;;78.57;45.55;;;;;;;1.38;66.16;101472.19;5029112;28;125149;-80
2022/03/17 03:11:13;;;;;;;81.47;46.45;;;;;;;1.38;66.12;101470.44;5028694;28;105956;-76
2022/03/17 03:13:38;;;;;;;85.85;47.53;;;;;;;1.38;66.36;101467.81;5031000;28;106277;-78
2022/03/17 03:16:04;;;;;;;91.15;48.65;;;;;;;1.40;66.21;101459.84;5030584;27;105886;-79
2022/03/17 03:18:29;;;;;;;84.47;48.13;;;;;;;1.39;66.66;101464.25;5029836;28;106061;-78
2022/03/17 03:20:54;;;;;;;88.78;48.72;;;;;;;1.39;66.88;101463.41;5031696;27;105997;-75
2022/03/17 03:23:20;;;;;;;96.28;49.17;;;;;;;1.41;66.84;101474.66;5030568;27;106012;-76
2022/03/17 03:25:45;;;;;;;88.15;47.78;;;;;;;1.39;66.63;101464.25;5029932;27;105896;-79
2022/03/17 03:28:11;;;;;;;88.55;46.58;;;;;;;1.38;66.59;101459.06;5028996;27;111570;-81
2022/03/17 03:30:37;;;;;;;88.05;47.17;;;;;;;1.36;66.60;101464.41;5029132;27;106397;-78
2022/03/17 03:33:03;;;;;;;87.97;47.05;;;;;;;1.34;66.70;101474.16;5030435;27;105980;-76
2022/03/17 03:38:13;;;;;;;81.82;47.28;;;;;;;1.24;66.82;101479.00;5029218;28;106405;-76
2022/03/17 03:40:38;;;;;;;81.53;45.45;;;;;;;1.20;67.20;101490.59;5027465;28;107206;-75
2022/03/17 03:43:04;;;;;;;86.18;47.38;;;;;;;1.17;67.34;101481.09;5029867;28;106333;-74
2022/03/17 03:45:29;;;;;;;93.15;47.13;;;;;;;1.17;67.30;101481.09;5028923;27;105865;-76
2022/03/17 03:47:55;;;;;;;102.38;49.20;;;;;;;1.17;67.23;101483.72;5028978;28;105889;-78
2022/03/17 03:50:20;;;;;;;97.70;48.08;;;;;;;1.16;67.11;101475.91;5029117;27;106253;-74
2022/03/17 03:52:45;;;;;;;78.28;44.58;;;;;;;1.14;67.37;101469.91;5029649;28;105895;-77
2022/03/17 03:55:11;;;;;;;79.72;46.45;;;;;;;1.13;67.50;101478.72;5028781;27;106186;-78
2022/03/17 03:57:36;;;;;;;82.05;47.08;;;;;;;1.10;67.48;101471.00;5029012;27;105996;-76
2022/03/17 04:00:17;;;;;;;87.20;47.08;;;;;;;1.07;67.55;101472.00;5028795;27;105924;-75
2022/03/17 04:02:43;;;;;;;83.18;45.10;;;;;;;1.06;67.36;101482.56;5029895;28;106449;-77
2022/03/17 04:05:08;;;;;;;87.32;46.08;;;;;;;1.05;67.88;101494.81;5029143;28;106126;-74
2022/03/17 04:07:34;;;;;;;80.97;47.20;;;;;;;1.03;67.90;101490.63;5028466;27;105953;-76
2022/03/17 04:09:59;;;;;;;84.88;48.83;;;;;;;1.00;67.62;101489.81;5027916;28;124921;-75
2022/03/17 04:12:24;;;;;;;87.20;48.10;;;;;;;0.97;68.01;101497.00;5028819;28;105846;-73
2022/03/17 04:14:50;;;;;;;81.78;46.28;;;;;;;0.95;67.94;101504.09;5028209;28;114658;-74
2022/03/17 04:17:15;;;;;;;81.85;45.10;;;;;;;0.91;67.54;101511.25;5027884;27;106386;-74
2022/03/17 04:19:40;;;;;;;82.30;43.97;;;;;;;0.87;67.85;101512.34;5028090;28;120886;-75
2022/03/17 04:22:07;;;;;;;80.72;45.45;;;;;;;0.86;68.20;101509.78;5029193;27;106163;-76
2022/03/17 04:24:33;;;;;;;76.53;44.88;;;;;;;0.83;67.79;101508.16;5028714;27;105940;-76
2022/03/17 04:26:58;;;;;;;78.15;45.35;;;;;;;0.82;68.14;101524.81;5027524;27;105829;-74
2022/03/17 04:29:23;;;;;;;79.63;45.05;;;;;;;0.78;67.91;101518.03;5028268;27;105668;-78
2022/03/17 04:31:49;;;;;;;81.32;46.55;;;;;;;0.76;68.28;101527.75;5029260;28;106562;-77
2022/03/17 04:34:14;;;;;;;85.93;46.50;;;;;;;0.72;68.50;101523.59;5028887;27;106207;-76
2022/03/17 04:36:40;;;;;;;85.63;47.03;;;;;;;0.71;68.26;101519.25;5028420;27;106088;-75
2022/03/17 04:39:06;;;;;;;76.07;45.13;;;;;;;0.71;68.44;101529.75;5028049;27;105917;-79
2022/03/17 04:41:32;;;;;;;82.80;45.45;;;;;;;0.70;68.61;101528.03;5027825;28;105989;-85
2022/03/17 04:43:57;;;;;;;78.53;47.17;;;;;;;0.70;68.66;101523.66;5028184;27;105964;-82
2022/03/17 04:46:23;;;;;;;86.97;48.40;;;;;;;0.70;68.38;101535.91;5028055;27;106007;-73
2022/03/17 04:48:48;;;;;;;90.13;49.72;;;;;;;0.71;68.71;101550.72;5027964;27;106034;-74
2022/03/17 04:51:14;;;;;;;87.05;48.47;;;;;;;0.71;68.74;101540.25;5028401;27;106039;-74
2022/03/17 04:53:39;;;;;;;87.72;48.00;;;;;;;0.71;68.65;101542.88;5027339;27;105959;-75
2022/03/17 04:56:06;;;;;;;91.53;47.97;;;;;;;0.70;68.75;101556.88;5027506;27;105958;-75
2022/03/17 04:58:33;;;;;;;88.20;45.97;;;;;;;0.69;68.87;101568.31;5027988;27;105994;-79
2022/03/17 05:00:59;;;;;;;88.93;49.15;;;;;;;0.66;68.65;101569.31;5027994;27;105872;-78
2022/03/17 06:25:54;;;;;;;82.10;45.10;;;;;;;4.39;67.25;101668.59;5005654;28;106664;-76
2022/03/17 06:28:20;;;;;;;77.90;44.83;;;;;;;4.62;67.20;101664.53;5003257;28;106085;-74
2022/03/17 06:30:45;;;;;;;74.40;43.05;;;;;;;4.90;67.12;101668.06;5003385;28;106918;-74
2022/03/17 06:33:10;;;;;;;84.22;45.20;;;;;;;5.19;67.07;101668.84;5003575;28;107481;-75
2022/03/17 06:35:36;;;;;;;81.20;45.78;;;;;;;5.43;66.35;101670.84;5003782;28;106206;-74
2022/03/17 06:38:04;;;;;;;77.55;44.45;;;;;;;5.57;65.83;101664.66;5004872;28;105963;-75
2022/03/17 06:40:30;;;;;;;74.75;44.42;;;;;;;5.74;65.99;101663.53;5004171;28;106317;-76
2022/03/17 06:42:56;;;;;;;73.30;45.63;;;;;;;5.95;65.83;101650.66;5003765;28;106545;-76
2022/03/17 06:45:23;;;;;;;88.88;46.08;;;;;;;6.21;65.54;101658.66;5003845;28;106101;-76
2022/03/17 06:47:48;;;;;;;76.72;43.53;;;;;;;6.39;64.74;101664.47;5004664;28;106113;-75
2022/03/17 06:50:15;;;;;;;75.20;46.33;;;;;;;6.46;64.21;101670.19;5003959;28;106191;-75
2022/03/17 06:52:41;;;;;;;83.03;46.83;;;;;;;6.46;63.88;101663.06;5003620;28;106950;-76
2022/03/17 06:55:07;;;;;;;85.32;47.95;;;;;;;6.54;64.29;101657.25;5003731;28;106096;-75
2022/03/17 06:57:32;;;;;;;78.25;47.40;;;;;;;6.60;63.64;101659.47;5003652;28;105988;-76
2022/03/17 06:59:58;;;;;;;61.40;36.58;;;;;;;6.58;63.29;101658.72;5004190;28;106183;-76
2022/03/17 07:02:23;;;;;;;83.32;50.45;;;;;;;6.47;62.81;101662.13;5003512;28;106102;-75
2022/03/17 07:04:48;;;;;;;87.43;47.72;;;;;;;6.43;62.99;101665.94;5003353;28;118369;-78
2022/03/17 07:07:14;;;;;;;81.03;46.70;;;;;;;6.42;62.92;101666.91;5003833;27;106018;-79
2022/03/17 07:09:41;;;;;;;72.85;46.65;;;;;;;6.42;62.80;101667.75;5004120;28;105889;-76
2022/03/17 07:12:08;;;;;;;78.68;49.05;;;;;;;6.44;62.70;101673.78;5003507;28;106768;-75
2022/03/17 07:14:34;;;;;;;79.30;47.47;;;;;;;6.49;62.55;101675.25;5002752;28;105895;-75
2022/03/17 07:16:59;;;;;;;77.13;46.83;;;;;;;6.49;62.32;101672.59;5004146;28;106455;-77
2022/03/17 07:19:25;;;;;;;83.38;46.03;;;;;;;6.53;62.18;101666.97;5003071;28;105987;-76
2022/03/17 07:21:52;;;;;;;86.45;48.90;;;;;;;6.62;62.75;101665.50;5003014;28;105815;-77
2022/03/17 07:24:17;;;;;;;79.90;48.30;;;;;;;6.78;62.71;101671.41;5002602;28;106225;-76
2022/03/17 07:26:43;;;;;;;79.25;48.95;;;;;;;6.85;61.75;101668.31;5004096;28;106021;-76
2022/03/17 07:29:09;;;;;;;86.65;48.70;;;;;;;6.93;61.94;101679.22;5002291;28;106232;-76
2022/03/17 07:31:34;;;;;;;83.93;44.75;;;;;;;7.06;61.76;101673.88;5002182;28;122066;-79
2022/03/17 07:34:00;;;;;;;86.28;51.92;;;;;;;7.16;61.45;101674.06;5003505;28;106222;-77
2022/03/17 07:36:26;;;;;;;87.07;51.47;;;;;;;7.22;61.43;101668.31;4995012;28;106254;-76
2022/03/17 07:38:56;;;;;;;86.93;54.42;;;;;;;7.25;60.54;101676.03;4990349;28;106566;-75
2022/03/17 07:41:22;;;;;;;82.40;51.40;;;;;;;7.27;60.50;101676.75;4988875;28;106204;-80
2022/03/17 07:43:48;;;;;;;82.97;50.88;;;;;;;7.28;59.89;101679.31;4988195;28;106102;-76
2022/03/17 07:46:13;;;;;;;94.10;52.38;;;;;;;7.41;59.81;101673.13;4990127;28;105933;-77
2022/03/17 07:48:39;;;;;;;88.05;53.03;;;;;;;7.54;59.85;101673.06;4989867;28;105944;-76
2022/03/17 07:51:04;;;;;;;97.03;55.20;;;;;;;7.61;59.44;101679.59;4989355;28;106015;-75
2022/03/17 07:53:30;;;;;;;83.65;50.25;;;;;;;7.72;58.86;101676.13;4987651;28;117752;-77
2022/03/17 07:55:56;;;;;;;86.88;52.28;;;;;;;7.74;58.74;101683.00;4990343;28;106158;-77
2022/03/17 07:58:24;;;;;;;89.65;51.38;;;;;;;7.82;58.41;101682.44;4989355;28;106575;-78
2022/03/17 08:00:51;;;;;;;86.50;51.33;;;;;;;7.82;58.54;101686.88;4989158;28;106957;-78
2022/03/17 08:03:17;;;;;;;91.65;52.60;;;;;;;7.87;57.88;101690.03;4989477;28;106096;-77
2022/03/17 08:05:46;;;;;;;90.20;51.63;;;;;;;8.06;58.36;101687.69;4990196;28;106425;-74
2022/03/17 08:08:12;;;;;;;84.55;50.15;;;;;;;8.20;57.69;101686.66;4989319;28;106229;-75
2022/03/17 08:10:37;;;;;;;86.57;50.50;;;;;;;8.28;57.51;101688.69;4989263;28;105900;-74
2022/03/17 08:13:02;;;;;;;72.10;41.38;;;;;;;8.41;56.86;101683.28;4989119;28;106271;-75
2022/03/17 08:15:28;;;;;;;74.90;48.08;;;;;;;8.46;56.50;101692.63;4990043;28;106033;-75
2022/03/17 08:17:53;;;;;;;87.88;50.17;;;;;;;8.48;55.61;101689.00;4989671;28;105742;-76
2022/03/17 08:20:19;;;;;;;83.25;50.30;;;;;;;8.52;56.31;101685.16;4989566;28;105803;-78
2022/03/17 08:22:45;;;;;;;79.68;49.65;;;;;;;8.57;55.78;101677.63;4989443;28;106409;-74
2022/03/17 08:25:10;;;;;;;83.38;49.30;;;;;;;8.74;55.52;101674.50;4989792;28;106032;-78
2022/03/17 08:27:40;;;;;;;77.05;47.85;;;;;;;8.93;55.53;101673.03;4989144;28;105783;-75
2022/03/17 08:30:07;;;;;;;82.45;51.10;;;;;;;9.11;55.03;101671.53;4988696;28;106734;-76
2022/03/17 08:32:33;;;;;;;81.45;50.90;;;;;;;9.26;54.78;101684.56;4986567;28;105968;-77
2022/03/17 08:34:58;;;;;;;80.78;49.33;;;;;;;9.32;54.19;101684.91;4989765;28;106215;-74
2022/03/17 08:37:23;;;;;;;80.25;49.60;;;;;;;9.41;53.80;101674.50;4988868;28;106208;-78
2022/03/17 08:39:48;;;;;;;88.57;53.28;;;;;;;9.48;53.04;101678.34;4988060;28;123147;-77
2022/03/17 08:42:14;;;;;;;83.10;50.78;;;;;;;9.58;53.04;101671.28;4987441;28;124368;-74
2022/03/17 08:44:40;;;;;;;88.15;52.40;;;;;;;9.87;53.14;101676.00;4987957;28;106389;-74
2022/03/17 08:49:50;;;;;;;80.30;51.08;;;;;;;10.08;51.64;101670.66;4988200;28;105879;-74
2022/03/17 08:52:15;;;;;;;82.75;52.30;;;;;;;10.06;51.50;101664.63;4988253;28;105984;-75
2022/03/17 08:54:44;;;;;;;85.53;53.35;;;;;;;10.10;50.91;101675.84;4989096;28;105801;-77
2022/03/17 08:57:11;;;;;;;88.97;53.63;;;;;;;10.16;50.49;101668.19;4988225;28;106159;-77
2022/03/17 08:59:37;;;;;;;83.53;51.33;;;;;;;10.36;50.88;101679.00;4988318;28;106078;-74
2022/03/17 09:02:05;;;;;;;75.65;49.58;;;;;;;10.47;50.53;101680.69;4988550;28;106112;-76
2022/03/17 09:04:31;;;;;;;75.93;47.83;;;;;;;10.62;50.38;101676.72;4988528;28;106027;-74
2022/03/17 09:07:01;;;;;;;70.63;47.28;;;;;;;10.76;50.06;101680.00;4988571;28;105901;-74
2022/03/17 09:09:28;;;;;;;71.35;46.10;;;;;;;10.77;49.07;101693.19;4987941;28;105806;-73
2022/03/17 09:11:53;;;;;;;72.38;46.28;;;;;;;10.97;49.09;101693.25;4990601;28;105858;-73
2022/03/17 09:14:20;;;;;;;72.90;46.90;;;;;;;11.22;48.99;101696.41;4989239;28;105865;-72
2022/03/17 09:16:45;;;;;;;72.60;47.85;;;;;;;11.43;48.58;101697.13;4988872;28;106248;-76
2022/03/17 09:19:11;;;;;;;67.82;44.28;;;;;;;11.70;48.01;101700.97;4988682;28;106971;-74
2022/03/17 09:21:36;;;;;;;69.03;44.58;;;;;;;11.79;46.88;101699.25;4988161;28;106478;-75
2022/03/17 09:24:03;;;;;;;74.80;45.00;;;;;;;11.85;47.23;101694.19;4988102;28;106138;-76
2022/03/17 09:26:29;;;;;;;66.07;42.92;;;;;;;11.95;45.92;101699.56;4988489;28;106282;-76
2022/03/17 09:28:55;;;;;;;68.40;42.20;;;;;;;11.77;45.24;101702.06;4988519;28;105895;-76
2022/03/17 09:31:22;;;;;;;62.50;42.15;;;;;;;11.78;45.81;101682.41;4988049;28;105930;-75
2022/03/17 09:33:47;;;;;;;65.78;40.75;;;;;;;11.93;45.54;101689.97;4988950;28;105747;-75
2022/03/17 09:36:13;;;;;;;61.35;39.83;;;;;;;12.05;44.17;101690.69;4988529;28;106169;-77
2022/03/17 09:38:38;;;;;;;65.15;39.40;;;;;;;12.08;43.77;101685.06;4988246;28;106015;-75
2022/03/17 09:41:23;;;;;;;66.00;40.00;;;;;;;12.15;43.51;101688.81;4988088;28;106073;-74
2022/03/17 09:43:49;;;;;;;55.15;35.47;;;;;;;12.27;42.69;101690.34;4988978;28;106095;-76
2022/03/17 09:46:16;;;;;;;55.70;36.75;;;;;;;12.28;42.29;101688.53;4988180;28;106255;-73
2022/03/17 09:48:43;;;;;;;52.92;34.97;;;;;;;12.32;41.51;101693.44;4987901;28;106089;-76
2022/03/17 09:51:09;;;;;;;49.35;34.70;;;;;;;12.33;41.53;101691.63;4987933;28;105918;-74
2022/03/17 09:53:34;;;;;;;51.22;33.35;;;;;;;12.29;40.70;101695.56;4988561;28;105839;-74
2022/03/17 09:55:59;;;;;;;46.92;32.65;;;;;;;12.15;40.75;101705.72;4988073;28;106218;-75
2022/03/17 09:58:25;;;;;;;44.25;31.55;;;;;;;11.93;40.10;101705.97;4987545;28;107054;-76
2022/03/17 10:00:53;;;;;;;47.05;31.10;;;;;;;11.88;40.32;101702.88;4987766;28;106053;-74
2022/03/17 10:03:21;;;;;;;51.83;28.52;;;;;;;11.80;39.35;101701.78;4988385;28;106096;-75
2022/03/17 10:05:48;;;;;;;44.65;29.20;;;;;;;11.70;38.45;101706.28;4987958;28;105957;-75
2022/03/17 10:08:16;;;;;;;39.95;25.20;;;;;;;11.62;37.97;101690.13;4987419;28;107142;-74
2022/03/17 10:10:43;;;;;;;39.58;27.02;;;;;;;11.56;37.44;101704.03;4987616;28;106041;-75
2022/03/17 10:13:16;;;;;;;39.25;26.40;;;;;;;11.65;37.35;101716.53;4988097;28;105958;-76
2022/03/17 10:15:44;;;;;;;41.72;25.80;;;;;;;11.73;37.00;101710.47;4987405;28;106057;-74
2022/03/17 10:18:24;;;;;;;37.85;24.85;;;;;;;11.82;35.23;101714.97;4987216;28;106086;-76
2022/03/17 10:21:11;;;;;;;41.10;24.48;;;;;;;11.79;35.38;101702.75;4987166;28;106182;-72
2022/03/17 10:23:48;;;;;;;35.38;23.02;;;;;;;11.82;34.99;101694.47;4987712;28;105900;-72
2022/03/17 10:26:39;;;;;;;29.83;20.60;;;;;;;11.95;34.43;101696.06;4987212;28;106019;-74
2022/03/17 10:29:16;;;;;;;36.45;22.75;;;;;;;12.14;34.53;101705.88;4987236;28;105940;-75
2022/03/17 10:32:00;;;;;;;31.25;20.48;;;;;;;12.27;33.75;101700.19;4987313;28;107017;-77
2022/03/17 10:34:34;;;;;;;31.15;18.30;;;;;;;12.25;31.72;101699.53;4988055;28;105994;-76
2022/03/17 10:37:10;;;;;;;27.02;17.70;;;;;;;12.18;31.28;101694.72;4987219;28;105819;-76
2022/03/17 10:39:44;;;;;;;31.85;19.80;;;;;;;12.13;32.47;101705.00;4987598;28;105945;-78
2022/03/17 10:42:17;;;;;;;33.53;20.55;;;;;;;12.24;32.36;101704.00;4987046;28;106377;-75
2022/03/17 10:44:51;;;;;;;23.55;15.77;;;;;;;12.12;30.93;101700.63;4987515;28;106058;-75
2022/03/17 10:47:24;;;;;;;26.90;17.90;;;;;;;12.03;30.96;101706.88;4986924;28;106183;-75
2022/03/17 10:50:13;;;;;;;29.65;18.05;;;;;;;11.91;31.26;101708.81;4986982;28;105908;-75
2022/03/17 10:52:50;;;;;;;22.48;15.23;;;;;;;11.97;31.53;101697.59;4986456;28;105988;-78
2022/03/17 10:55:21;;;;;;;29.10;19.00;;;;;;;11.87;31.53;101699.38;4987546;28;106041;-77
2022/03/17 10:57:48;;;;;;;27.42;18.15;;;;;;;11.88;31.52;101694.88;4986761;28;106696;-76
2022/03/17 11:00:22;;;;;;;31.48;20.65;;;;;;;11.91;31.71;101691.94;4986774;28;105926;-77
2022/03/17 11:02:49;;;;;;;27.63;18.13;;;;;;;11.93;31.50;101703.31;4986290;28;106116;-74
2022/03/17 11:05:17;;;;;;;33.65;21.77;;;;;;;11.91;31.76;101702.63;4987553;28;106176;-75
2022/03/17 11:07:45;;;;;;;38.20;20.83;;;;;;;11.97;31.43;101705.59;4987010;28;106123;-75
2022/03/17 11:10:15;;;;;;;31.50;20.45;;;;;;;11.92;31.84;101699.81;4985535;28;106826;-76
2022/03/17 11:12:41;;;;;;;32.08;19.10;;;;;;;11.95;31.52;101699.56;4989952;28;105973;-75
2022/03/17 11:15:07;;;;;;;30.67;20.17;;;;;;;11.95;31.60;101709.41;4990071;28;106491;-76
2022/03/17 11:17:47;;;;;;;32.53;21.20;;;;;;;11.90;31.00;101704.44;4990904;28;105782;-77
2022/03/17 11:20:18;;;;;;;32.55;20.75;;;;;;;12.08;31.18;101709.94;4990047;28;105885;-77
2022/03/17 11:22:50;;;;;;;31.08;19.52;;;;;;;12.27;31.28;101709.03;4989354;28;105968;-76
2022/03/17 11:25:23;;;;;;;33.47;20.10;;;;;;;12.37;30.20;101701.03;4990243;28;106060;-77
2022/03/17 11:27:49;;;;;;;36.35;22.55;;;;;;;12.47;30.68;101707.16;4990311;28;106308;-75
2022/03/17 11:30:16;;;;;;;35.97;22.38;;;;;;;12.67;30.10;101699.94;4990119;28;106798;-74
2022/03/17 11:32:54;;;;;;;34.35;20.13;;;;;;;12.82;30.45;101702.97;4989573;28;106138;-70
2022/03/17 11:35:25;;;;;;;37.83;22.02;;;;;;;12.80;30.42;101699.59;4990166;28;105936;-73
2022/03/17 11:38:17;;;;;;;34.03;22.27;;;;;;;12.91;30.29;101703.06;4989878;28;106020;-74
2022/03/17 11:41:07;;;;;;;26.58;18.48;;;;;;;12.83;30.05;101703.81;4989743;28;106277;-73
2022/03/17 11:43:44;;;;;;;39.15;22.52;;;;;;;12.71;30.00;101711.16;4987914;28;108016;-73
2022/03/17 11:46:15;;;;;;;30.95;20.73;;;;;;;12.56;29.13;101685.91;4990923;28;105759;-74
2022/03/17 11:48:42;;;;;;;25.70;17.30;;;;;;;12.52;29.79;101696.91;4989734;28;106198;-73
2022/03/17 11:51:10;;;;;;;22.33;14.40;;;;;;;12.45;28.35;101710.97;4989055;28;105874;-73
2022/03/17 11:53:38;;;;;;;27.65;17.92;;;;;;;12.24;28.68;101712.00;4989684;28;105945;-73
2022/03/17 11:56:05;;;;;;;32.15;21.20;;;;;;;12.06;29.05;101717.25;4989843;28;106063;-73
2022/03/17 11:58:46;;;;;;;32.22;21.48;;;;;;;12.01;30.08;101698.13;4989534;28;105904;-72
2022/03/17 12:01:37;;;;;;;31.83;22.50;;;;;;;12.24;30.60;101692.47;4989601;28;105995;-72
2022/03/17 12:04:04;;;;;;;34.75;22.90;;;;;;;12.29;30.83;101700.91;4989189;28;105958;-74
2022/03/17 12:06:34;;;;;;;30.15;20.08;;;;;;;12.24;30.64;101703.16;4989876;28;105881;-74
2022/03/17 12:09:04;;;;;;;34.42;21.48;;;;;;;12.06;31.14;101698.56;4989677;28;106189;-77
2022/03/17 12:11:32;;;;;;;37.15;22.15;;;;;;;11.89;31.34;101704.59;4989192;28;105929;-74
2022/03/17 12:14:19;;;;;;;34.55;21.38;;;;;;;11.71;31.97;101713.28;4989333;28;106277;-73
2022/03/17 12:17:04;;;;;;;32.13;20.13;;;;;;;11.55;32.55;101711.19;4989441;28;106182;-72
2022/03/17 12:19:31;;;;;;;36.65;23.65;;;;;;;11.38;32.28;101707.38;4988047;28;106250;-75
2022/03/17 12:22:02;;;;;;;41.35;26.52;;;;;;;11.30;33.27;101704.56;4985771;28;106880;-74
2022/03/17 12:24:33;;;;;;;35.05;23.55;;;;;;;11.18;33.50;101694.00;4988108;28;108760;-73
2022/03/17 12:27:09;;;;;;;40.85;24.65;;;;;;;11.09;33.26;101704.66;4988923;28;106028;-75
2022/03/17 12:29:34;;;;;;;35.67;22.77;;;;;;;11.00;33.67;101698.31;4989122;28;106214;-71
2022/03/17 12:32:05;;;;;;;35.47;23.33;;;;;;;10.93;33.94;101698.00;4988625;28;105980;-73
2022/03/17 12:34:31;;;;;;;28.15;18.55;;;;;;;10.91;33.43;101709.81;4988505;28;106006;-73
2022/03/17 12:37:00;;;;;;;19.40;13.35;;;;;;;10.84;32.22;101713.00;4989010;28;106381;-75
2022/03/17 12:39:30;;;;;;;29.85;17.60;;;;;;;10.74;32.04;101692.63;4989248;28;106206;-74
2022/03/17 12:41:57;;;;;;;29.73;19.77;;;;;;;10.78;31.83;101694.03;4988728;28;106151;-74